Terminal Aerodrome Forecast
Issued by NWS

Home | Current Version | Previous Version | Text Only | Print | Product List | Glossary On
Versions: 1 2 3 4 5 6 7 8 9 10 11 12 13 14 15 16
000
FTAK31 PAJN 291800 CCA
TAFAYA
TAF COR
PAYA 291800Z 2918/3018 10004KT P6SM SCT014 OVC020
      TEMPO 2918/2922 4SM -RA BR OVC014
     FM292200 09004KT 3SM -RA BR OVC015
     FM300300 10003KT 4SM -RASN BR OVC025
     FM300600 08002KT 3SM -SN OVC050
     FM300900 09003KT P6SM -SHSN BKN050 OVC070
      AMD LTD TO CLD VIS AND WIND 3001/3010=

USA.gov is the U.S. government's official web portal to all federal, state and local government web resources and services.